Rechercher aéroport 
image banner adimage banner adimage banner ad
image banner ad

58CA - Jay Stephen Hooper Memorial

Situé à Los Angeles, United States

ICAO - 58CA, IATA -

Données fournies par Airmate  

Information générale

Coordonnées: N34°3'16" W118°13'46"
Élévation : 353 feet MSL.
Variation magnétique : 14° East
Voir autres Aéroports à California

Données opérationnelles

Special qualification required
Heure actuelle UTC:
Heure actuelle locale:
METAR: KHHR 270553Z AUTO 29004KT 10SM OVC017 19/16 A2999 RMK AO2 SLP154 T01940161 10222 20194 51016
Voir NOTAMs / SUP AIP / TFR affectant cet aéroport [VIEW]
Fréquences de communication: [VIEW]

Pistes:

Coordonnées de l'aéroport

Adresse: Los Angeles United States

Vue satellite de 58CA